ROMMA est une association bénévole à but non lucratif. Votre soutien est indispensable : ADHERER à ROMMA ou FAIRE un DON

Crempigny - (74, Haute-Savoie)

Albanais-Montagne des Princes (500 m)   Longitude: 05° 54' 5" E   Latitude: 45° 57' 0" N Station partenaire n°10
 

Détail journalier du     <<     >>

Température Precipitation Humidité Pression Vent Dir Rafale Dir. rafale Ensol. 20 cm au dessus du sol
Heure (°C) (mm) (%) (hPa) (km/h) (km/h) (min) (°C)
01:00 3.70.29810141OSO3OSO02.8
02:00 3.509810143NE11NE02.8
03:00 3.109810143NE8NNE02.8
04:00 3.009810143NE11NO02.8
05:00 2.709810131SSO5S02.2
06:00 1.909810131N5N01.1
07:00 1.209810134NO8NO00.6
08:00 -0.109810132NO5NO5-0.6
09:00 0.909910132NNO6NO01.1
10:00 2.409910121NNE6SSO505.6
11:00 2.9010010122SO10SO59.4
12:00 3.209810114SSO11SSO356.7
13:00 5.109610103SSO8SSO5510.0
14:00 7.007810094SSO10OSO6011.1
15:00 7.107710094SSO8S408.3
16:00 6.408310092SO6ONO206.1
17:00 5.208410084NO8NO54.4
18:00 4.408510087NO10NO03.9
19:00 4.508310087NO11NO03.3
20:00 2.908710073ONO8ONO01.7
21:00 2.309210072ONO6N01.7
22:00 2.109210063NNE6N01.1
23:00 1.509410063NNO8NNO01.1
minuit 1.409310063ONO8ONO00.0

Graphique du 12-11-2019

 

Serveur OMMA